sensor_id;sensor_type;location;lat;lon;timestamp;temperature;humidity
61591;DHT22;71994;52.410;-1.966;2023-10-31T00:02:42;17.10;62.40
61591;DHT22;71994;52.410;-1.966;2023-10-31T00:05:48;17.10;62.30
61591;DHT22;71994;52.410;-1.966;2023-10-31T00:08:54;17.10;62.30
61591;DHT22;71994;52.410;-1.966;2023-10-31T00:12:01;17.10;62.70
61591;DHT22;71994;52.410;-1.966;2023-10-31T00:15:10;17.10;62.30
61591;DHT22;71994;52.410;-1.966;2023-10-31T00:18:17;17.10;62.20
61591;DHT22;71994;52.410;-1.966;2023-10-31T00:21:23;17.10;62.20
61591;DHT22;71994;52.410;-1.966;2023-10-31T00:24:30;17.00;62.20
61591;DHT22;71994;52.410;-1.966;2023-10-31T00:27:36;17.00;62.50
61591;DHT22;71994;52.410;-1.966;2023-10-31T00:30:45;17.00;62.30
61591;DHT22;71994;52.410;-1.966;2023-10-31T00:34:00;17.10;62.30
61591;DHT22;71994;52.410;-1.966;2023-10-31T00:37:07;17.00;62.10
61591;DHT22;71994;52.410;-1.966;2023-10-31T00:40:13;17.00;62.40
61591;DHT22;71994;52.410;-1.966;2023-10-31T00:43:20;17.00;62.30
61591;DHT22;71994;52.410;-1.966;2023-10-31T00:46:29;17.00;62.80
61591;DHT22;71994;52.410;-1.966;2023-10-31T00:49:36;17.00;62.40
61591;DHT22;71994;52.410;-1.966;2023-10-31T00:52:42;16.90;62.50
61591;DHT22;71994;52.410;-1.966;2023-10-31T00:55:49;16.90;62.90
61591;DHT22;71994;52.410;-1.966;2023-10-31T00:58:55;16.90;62.50
61591;DHT22;71994;52.410;-1.966;2023-10-31T01:02:04;16.90;62.60
61591;DHT22;71994;52.410;-1.966;2023-10-31T01:05:11;16.80;63.10
61591;DHT22;71994;52.410;-1.966;2023-10-31T01:08:17;16.80;62.70
61591;DHT22;71994;52.410;-1.966;2023-10-31T01:11:23;16.80;63.00
61591;DHT22;71994;52.410;-1.966;2023-10-31T01:14:29;16.80;63.20
61591;DHT22;71994;52.410;-1.966;2023-10-31T01:17:39;16.80;62.90
61591;DHT22;71994;52.410;-1.966;2023-10-31T01:20:45;16.80;63.30
61591;DHT22;71994;52.410;-1.966;2023-10-31T01:23:51;16.70;63.20
61591;DHT22;71994;52.410;-1.966;2023-10-31T01:26:57;16.80;63.10
61591;DHT22;71994;52.410;-1.966;2023-10-31T01:30:04;16.70;62.90
61591;DHT22;71994;52.410;-1.966;2023-10-31T01:33:13;16.70;63.00
61591;DHT22;71994;52.410;-1.966;2023-10-31T01:36:24;16.70;63.00
61591;DHT22;71994;52.410;-1.966;2023-10-31T01:39:31;16.70;62.70
61591;DHT22;71994;52.410;-1.966;2023-10-31T01:42:37;16.70;62.80
61591;DHT22;71994;52.410;-1.966;2023-10-31T01:45:43;16.70;63.00
61591;DHT22;71994;52.410;-1.966;2023-10-31T01:48:53;16.70;62.70
61591;DHT22;71994;52.410;-1.966;2023-10-31T01:52:00;16.70;62.70
61591;DHT22;71994;52.410;-1.966;2023-10-31T01:55:07;16.70;62.60
61591;DHT22;71994;52.410;-1.966;2023-10-31T01:58:18;16.70;62.40
61591;DHT22;71994;52.410;-1.966;2023-10-31T02:01:26;16.70;62.60
61591;DHT22;71994;52.410;-1.966;2023-10-31T02:04:35;16.70;62.40
61591;DHT22;71994;52.410;-1.966;2023-10-31T02:07:44;16.70;62.50
61591;DHT22;71994;52.410;-1.966;2023-10-31T02:10:51;16.70;62.50
61591;DHT22;71994;52.410;-1.966;2023-10-31T02:13:57;16.70;62.50
61591;DHT22;71994;52.410;-1.966;2023-10-31T02:17:03;16.60;62.60
61591;DHT22;71994;52.410;-1.966;2023-10-31T02:20:12;16.60;62.40
61591;DHT22;71994;52.410;-1.966;2023-10-31T02:23:21;16.60;62.60
61591;DHT22;71994;52.410;-1.966;2023-10-31T02:26:31;16.60;62.80
61591;DHT22;71994;52.410;-1.966;2023-10-31T02:29:38;16.60;62.50
61591;DHT22;71994;52.410;-1.966;2023-10-31T02:32:45;16.60;62.80
61591;DHT22;71994;52.410;-1.966;2023-10-31T02:35:51;16.60;62.60
61591;DHT22;71994;52.410;-1.966;2023-10-31T02:39:00;16.60;62.60
61591;DHT22;71994;52.410;-1.966;2023-10-31T02:42:07;16.60;62.50
61591;DHT22;71994;52.410;-1.966;2023-10-31T02:45:13;16.60;62.50
61591;DHT22;71994;52.410;-1.966;2023-10-31T02:48:21;16.60;62.80
61591;DHT22;71994;52.410;-1.966;2023-10-31T02:51:28;16.60;62.70
61591;DHT22;71994;52.410;-1.966;2023-10-31T02:54:36;16.60;62.60
61591;DHT22;71994;52.410;-1.966;2023-10-31T02:57:43;16.60;62.50
61591;DHT22;71994;52.410;-1.966;2023-10-31T03:00:49;16.60;62.70
61591;DHT22;71994;52.410;-1.966;2023-10-31T03:03:55;16.60;62.80
61591;DHT22;71994;52.410;-1.966;2023-10-31T03:07:01;16.60;62.80
61591;DHT22;71994;52.410;-1.966;2023-10-31T03:10:10;16.60;62.90
61591;DHT22;71994;52.410;-1.966;2023-10-31T03:13:17;16.60;63.00
61591;DHT22;71994;52.410;-1.966;2023-10-31T03:16:23;16.60;63.00
61591;DHT22;71994;52.410;-1.966;2023-10-31T03:19:29;16.60;63.10
61591;DHT22;71994;52.410;-1.966;2023-10-31T03:22:36;16.50;63.10
61591;DHT22;71994;52.410;-1.966;2023-10-31T03:25:45;16.50;63.00
61591;DHT22;71994;52.410;-1.966;2023-10-31T03:28:51;16.60;63.20
61591;DHT22;71994;52.410;-1.966;2023-10-31T03:32:00;16.50;63.00
61591;DHT22;71994;52.410;-1.966;2023-10-31T03:35:08;16.50;63.30
61591;DHT22;71994;52.410;-1.966;2023-10-31T03:38:14;16.50;63.20
61591;DHT22;71994;52.410;-1.966;2023-10-31T03:41:23;16.50;63.20
61591;DHT22;71994;52.410;-1.966;2023-10-31T03:44:32;16.40;63.30
61591;DHT22;71994;52.410;-1.966;2023-10-31T03:47:39;16.50;63.30
61591;DHT22;71994;52.410;-1.966;2023-10-31T03:50:45;16.40;63.20
61591;DHT22;71994;52.410;-1.966;2023-10-31T03:53:52;16.40;63.30
61591;DHT22;71994;52.410;-1.966;2023-10-31T03:57:01;16.40;63.20
61591;DHT22;71994;52.410;-1.966;2023-10-31T04:00:08;16.40;63.10
61591;DHT22;71994;52.410;-1.966;2023-10-31T04:03:14;16.40;63.30
61591;DHT22;71994;52.410;-1.966;2023-10-31T04:06:21;16.30;63.30
61591;DHT22;71994;52.410;-1.966;2023-10-31T04:09:27;16.30;63.30
61591;DHT22;71994;52.410;-1.966;2023-10-31T04:12:36;16.40;63.40
61591;DHT22;71994;52.410;-1.966;2023-10-31T04:15:43;16.30;63.50
61591;DHT22;71994;52.410;-1.966;2023-10-31T04:18:50;16.30;63.50
61591;DHT22;71994;52.410;-1.966;2023-10-31T04:21:56;16.30;63.30
61591;DHT22;71994;52.410;-1.966;2023-10-31T04:25:02;16.30;63.40
61591;DHT22;71994;52.410;-1.966;2023-10-31T04:28:11;16.30;63.30
61591;DHT22;71994;52.410;-1.966;2023-10-31T04:31:18;16.30;63.30
61591;DHT22;71994;52.410;-1.966;2023-10-31T04:34:24;16.30;63.20
61591;DHT22;71994;52.410;-1.966;2023-10-31T04:37:32;16.30;63.20
61591;DHT22;71994;52.410;-1.966;2023-10-31T04:40:40;16.30;63.20
61591;DHT22;71994;52.410;-1.966;2023-10-31T04:43:52;16.30;63.20
61591;DHT22;71994;52.410;-1.966;2023-10-31T04:46:58;16.30;63.10
61591;DHT22;71994;52.410;-1.966;2023-10-31T04:50:05;16.30;62.90
61591;DHT22;71994;52.410;-1.966;2023-10-31T04:53:11;16.30;63.00
61591;DHT22;71994;52.410;-1.966;2023-10-31T04:56:18;16.30;63.00
61591;DHT22;71994;52.410;-1.966;2023-10-31T04:59:29;16.30;63.00
61591;DHT22;71994;52.410;-1.966;2023-10-31T05:02:36;16.30;63.10
61591;DHT22;71994;52.410;-1.966;2023-10-31T05:05:45;16.30;62.90
61591;DHT22;71994;52.410;-1.966;2023-10-31T05:08:51;16.30;63.00
61591;DHT22;71994;52.410;-1.966;2023-10-31T05:11:57;16.30;63.00
61591;DHT22;71994;52.410;-1.966;2023-10-31T05:15:08;16.30;63.00
61591;DHT22;71994;52.410;-1.966;2023-10-31T05:18:14;16.30;62.80
61591;DHT22;71994;52.410;-1.966;2023-10-31T05:21:20;16.30;63.00
61591;DHT22;71994;52.410;-1.966;2023-10-31T05:24:27;16.20;63.00
61591;DHT22;71994;52.410;-1.966;2023-10-31T05:27:35;16.30;63.00
61591;DHT22;71994;52.410;-1.966;2023-10-31T05:30:44;16.20;62.90
61591;DHT22;71994;52.410;-1.966;2023-10-31T05:33:50;16.20;62.80
61591;DHT22;71994;52.410;-1.966;2023-10-31T05:36:57;16.20;62.90
61591;DHT22;71994;52.410;-1.966;2023-10-31T05:40:03;16.10;63.00
61591;DHT22;71994;52.410;-1.966;2023-10-31T05:43:10;16.20;63.20
61591;DHT22;71994;52.410;-1.966;2023-10-31T05:46:19;16.10;63.00
61591;DHT22;71994;52.410;-1.966;2023-10-31T05:49:25;16.10;63.00
61591;DHT22;71994;52.410;-1.966;2023-10-31T05:52:32;16.10;63.10
61591;DHT22;71994;52.410;-1.966;2023-10-31T05:55:38;16.10;62.80
61591;DHT22;71994;52.410;-1.966;2023-10-31T05:58:45;16.10;62.90
61591;DHT22;71994;52.410;-1.966;2023-10-31T06:01:59;16.10;62.80
61591;DHT22;71994;52.410;-1.966;2023-10-31T06:05:06;16.10;63.10
61591;DHT22;71994;52.410;-1.966;2023-10-31T06:08:13;16.10;62.90
61591;DHT22;71994;52.410;-1.966;2023-10-31T06:11:19;16.10;62.90
61591;DHT22;71994;52.410;-1.966;2023-10-31T06:14:25;16.10;62.90
61591;DHT22;71994;52.410;-1.966;2023-10-31T06:17:34;16.10;63.20
61591;DHT22;71994;52.410;-1.966;2023-10-31T06:20:40;16.10;62.90
61591;DHT22;71994;52.410;-1.966;2023-10-31T06:23:47;16.10;63.00
61591;DHT22;71994;52.410;-1.966;2023-10-31T06:26:53;16.10;63.20
61591;DHT22;71994;52.410;-1.966;2023-10-31T06:30:01;16.10;63.00
61591;DHT22;71994;52.410;-1.966;2023-10-31T06:33:10;16.10;63.00
61591;DHT22;71994;52.410;-1.966;2023-10-31T06:36:16;16.10;63.10
61591;DHT22;71994;52.410;-1.966;2023-10-31T06:39:23;16.10;63.30
61591;DHT22;71994;52.410;-1.966;2023-10-31T06:42:30;16.10;63.50
61591;DHT22;71994;52.410;-1.966;2023-10-31T06:45:36;16.10;63.30
61591;DHT22;71994;52.410;-1.966;2023-10-31T06:48:47;16.00;63.00
61591;DHT22;71994;52.410;-1.966;2023-10-31T06:51:54;16.10;63.20
61591;DHT22;71994;52.410;-1.966;2023-10-31T06:55:01;16.10;63.50
61591;DHT22;71994;52.410;-1.966;2023-10-31T06:58:07;16.00;63.30
61591;DHT22;71994;52.410;-1.966;2023-10-31T07:01:14;16.00;63.20
61591;DHT22;71994;52.410;-1.966;2023-10-31T07:04:26;16.00;63.00
61591;DHT22;71994;52.410;-1.966;2023-10-31T07:07:32;16.00;62.90
61591;DHT22;71994;52.410;-1.966;2023-10-31T07:10:38;16.10;62.80
61591;DHT22;71994;52.410;-1.966;2023-10-31T07:13:44;16.10;62.60
61591;DHT22;71994;52.410;-1.966;2023-10-31T07:16:50;16.20;62.80
61591;DHT22;71994;52.410;-1.966;2023-10-31T07:19:59;16.30;62.70
61591;DHT22;71994;52.410;-1.966;2023-10-31T07:23:06;16.50;62.40
61591;DHT22;71994;52.410;-1.966;2023-10-31T07:26:12;16.70;62.00
61591;DHT22;71994;52.410;-1.966;2023-10-31T07:29:18;17.00;61.50
61591;DHT22;71994;52.410;-1.966;2023-10-31T07:32:25;17.20;61.00
61591;DHT22;71994;52.410;-1.966;2023-10-31T07:35:34;17.50;60.80
61591;DHT22;71994;52.410;-1.966;2023-10-31T07:38:40;17.70;60.20
61591;DHT22;71994;52.410;-1.966;2023-10-31T07:41:47;17.90;60.00
61591;DHT22;71994;52.410;-1.966;2023-10-31T07:44:53;18.10;59.60
61591;DHT22;71994;52.410;-1.966;2023-10-31T07:47:59;18.20;59.40
61591;DHT22;71994;52.410;-1.966;2023-10-31T07:51:08;18.40;59.20
61591;DHT22;71994;52.410;-1.966;2023-10-31T07:54:14;18.60;59.00
61591;DHT22;71994;52.410;-1.966;2023-10-31T07:57:21;18.60;58.80
61591;DHT22;71994;52.410;-1.966;2023-10-31T08:00:27;18.80;58.60
61591;DHT22;71994;52.410;-1.966;2023-10-31T08:03:35;19.00;58.30
61591;DHT22;71994;52.410;-1.966;2023-10-31T08:06:44;19.00;58.10
61591;DHT22;71994;52.410;-1.966;2023-10-31T08:09:50;19.10;58.10
61591;DHT22;71994;52.410;-1.966;2023-10-31T08:12:56;19.10;57.90
61591;DHT22;71994;52.410;-1.966;2023-10-31T08:16:03;19.10;57.90
61591;DHT22;71994;52.410;-1.966;2023-10-31T08:19:09;19.10;58.00
61591;DHT22;71994;52.410;-1.966;2023-10-31T08:22:18;19.10;57.90
61591;DHT22;71994;52.410;-1.966;2023-10-31T08:25:25;19.10;58.00
61591;DHT22;71994;52.410;-1.966;2023-10-31T08:28:34;19.10;58.30
61591;DHT22;71994;52.410;-1.966;2023-10-31T08:31:43;19.00;58.40
61591;DHT22;71994;52.410;-1.966;2023-10-31T08:34:49;18.90;58.80
61591;DHT22;71994;52.410;-1.966;2023-10-31T08:37:59;18.80;59.10
61591;DHT22;71994;52.410;-1.966;2023-10-31T08:41:06;18.70;59.30
61591;DHT22;71994;52.410;-1.966;2023-10-31T08:44:14;18.60;59.70
61591;DHT22;71994;52.410;-1.966;2023-10-31T08:47:20;18.60;59.90
61591;DHT22;71994;52.410;-1.966;2023-10-31T08:50:26;18.50;60.20
61591;DHT22;71994;52.410;-1.966;2023-10-31T08:53:35;18.40;60.40
61591;DHT22;71994;52.410;-1.966;2023-10-31T08:56:42;18.30;60.40
61591;DHT22;71994;52.410;-1.966;2023-10-31T08:59:48;18.20;60.60
61591;DHT22;71994;52.410;-1.966;2023-10-31T09:02:54;18.10;60.80
61591;DHT22;71994;52.410;-1.966;2023-10-31T09:06:00;18.10;61.00
61591;DHT22;71994;52.410;-1.966;2023-10-31T09:09:09;18.10;61.20
61591;DHT22;71994;52.410;-1.966;2023-10-31T09:12:16;18.10;61.20
61591;DHT22;71994;52.410;-1.966;2023-10-31T09:15:23;18.00;61.30
61591;DHT22;71994;52.410;-1.966;2023-10-31T09:18:29;17.90;61.40
61591;DHT22;71994;52.410;-1.966;2023-10-31T09:21:35;17.90;61.50
61591;DHT22;71994;52.410;-1.966;2023-10-31T09:24:44;17.80;61.50
61591;DHT22;71994;52.410;-1.966;2023-10-31T09:27:50;17.80;61.60
61591;DHT22;71994;52.410;-1.966;2023-10-31T09:30:57;17.70;61.70
61591;DHT22;71994;52.410;-1.966;2023-10-31T09:34:04;17.60;61.80
61591;DHT22;71994;52.410;-1.966;2023-10-31T09:37:11;17.60;61.80
61591;DHT22;71994;52.410;-1.966;2023-10-31T09:40:20;17.60;61.80
61591;DHT22;71994;52.410;-1.966;2023-10-31T09:43:26;17.60;61.90
61591;DHT22;71994;52.410;-1.966;2023-10-31T09:46:33;17.60;61.90
61591;DHT22;71994;52.410;-1.966;2023-10-31T09:49:41;17.60;62.00
61591;DHT22;71994;52.410;-1.966;2023-10-31T09:52:47;17.50;61.90
61591;DHT22;71994;52.410;-1.966;2023-10-31T09:55:56;17.50;61.90
61591;DHT22;71994;52.410;-1.966;2023-10-31T09:59:05;17.50;62.00
61591;DHT22;71994;52.410;-1.966;2023-10-31T10:02:12;17.50;62.00
61591;DHT22;71994;52.410;-1.966;2023-10-31T10:05:18;17.40;62.10
61591;DHT22;71994;52.410;-1.966;2023-10-31T10:08:25;17.40;62.10
61591;DHT22;71994;52.410;-1.966;2023-10-31T10:11:34;17.40;62.00
61591;DHT22;71994;52.410;-1.966;2023-10-31T10:14:41;17.40;62.10
61591;DHT22;71994;52.410;-1.966;2023-10-31T10:17:50;17.30;62.10
61591;DHT22;71994;52.410;-1.966;2023-10-31T10:20:58;17.30;62.20
61591;DHT22;71994;52.410;-1.966;2023-10-31T10:24:04;17.30;62.20
61591;DHT22;71994;52.410;-1.966;2023-10-31T10:27:14;17.30;62.10
61591;DHT22;71994;52.410;-1.966;2023-10-31T10:30:20;17.30;62.20
61591;DHT22;71994;52.410;-1.966;2023-10-31T10:33:29;17.20;62.20
61591;DHT22;71994;52.410;-1.966;2023-10-31T10:36:35;17.20;62.30
61591;DHT22;71994;52.410;-1.966;2023-10-31T10:39:43;17.20;62.30
61591;DHT22;71994;52.410;-1.966;2023-10-31T10:42:59;17.20;62.40
61591;DHT22;71994;52.410;-1.966;2023-10-31T10:46:07;17.10;62.40
61591;DHT22;71994;52.410;-1.966;2023-10-31T10:49:20;17.10;62.40
61591;DHT22;71994;52.410;-1.966;2023-10-31T10:52:30;17.10;62.40
61591;DHT22;71994;52.410;-1.966;2023-10-31T10:55:45;17.10;62.40
61591;DHT22;71994;52.410;-1.966;2023-10-31T10:58:58;17.10;62.40
61591;DHT22;71994;52.410;-1.966;2023-10-31T11:02:06;17.10;62.30
61591;DHT22;71994;52.410;-1.966;2023-10-31T11:05:14;17.10;62.40
61591;DHT22;71994;52.410;-1.966;2023-10-31T11:08:20;17.10;62.40
61591;DHT22;71994;52.410;-1.966;2023-10-31T11:11:27;17.10;62.30
61591;DHT22;71994;52.410;-1.966;2023-10-31T11:14:37;17.10;62.30
61591;DHT22;71994;52.410;-1.966;2023-10-31T11:17:44;17.10;62.30
61591;DHT22;71994;52.410;-1.966;2023-10-31T11:20:51;17.10;62.30
61591;DHT22;71994;52.410;-1.966;2023-10-31T11:23:58;17.10;62.40
61591;DHT22;71994;52.410;-1.966;2023-10-31T11:27:06;17.10;62.50
61591;DHT22;71994;52.410;-1.966;2023-10-31T11:30:27;17.00;62.50
61591;DHT22;71994;52.410;-1.966;2023-10-31T11:33:34;17.00;62.60
61591;DHT22;71994;52.410;-1.966;2023-10-31T11:36:46;17.10;62.50
61591;DHT22;71994;52.410;-1.966;2023-10-31T11:40:14;17.00;62.60
61591;DHT22;71994;52.410;-1.966;2023-10-31T11:43:22;17.10;62.60
61591;DHT22;71994;52.410;-1.966;2023-10-31T11:46:31;17.00;62.60
61591;DHT22;71994;52.410;-1.966;2023-10-31T11:49:46;17.00;62.60
61591;DHT22;71994;52.410;-1.966;2023-10-31T11:53:00;17.00;62.70
61591;DHT22;71994;52.410;-1.966;2023-10-31T11:56:10;17.00;62.70
61591;DHT22;71994;52.410;-1.966;2023-10-31T11:59:21;17.00;62.80
61591;DHT22;71994;52.410;-1.966;2023-10-31T12:02:30;16.90;62.90
61591;DHT22;71994;52.410;-1.966;2023-10-31T12:05:40;16.90;62.90
61591;DHT22;71994;52.410;-1.966;2023-10-31T12:08:59;16.90;62.90
61591;DHT22;71994;52.410;-1.966;2023-10-31T12:12:07;17.10;63.00
61591;DHT22;71994;52.410;-1.966;2023-10-31T12:15:13;17.10;62.70
61591;DHT22;71994;52.410;-1.966;2023-10-31T12:18:22;17.40;62.40
61591;DHT22;71994;52.410;-1.966;2023-10-31T12:21:39;17.60;61.90
61591;DHT22;71994;52.410;-1.966;2023-10-31T12:24:46;17.80;61.50
61591;DHT22;71994;52.410;-1.966;2023-10-31T12:27:52;18.10;61.00
61591;DHT22;71994;52.410;-1.966;2023-10-31T12:30:58;18.30;60.40
61591;DHT22;71994;52.410;-1.966;2023-10-31T12:34:08;18.60;60.00
61591;DHT22;71994;52.410;-1.966;2023-10-31T12:37:15;18.60;59.70
61591;DHT22;71994;52.410;-1.966;2023-10-31T12:40:21;18.80;59.40
61591;DHT22;71994;52.410;-1.966;2023-10-31T12:43:28;18.90;59.20
61591;DHT22;71994;52.410;-1.966;2023-10-31T12:46:34;18.90;59.10
61591;DHT22;71994;52.410;-1.966;2023-10-31T12:49:43;19.00;59.10
61591;DHT22;71994;52.410;-1.966;2023-10-31T12:52:51;19.00;59.00
61591;DHT22;71994;52.410;-1.966;2023-10-31T12:55:57;19.00;59.00
61591;DHT22;71994;52.410;-1.966;2023-10-31T12:59:03;19.00;59.00
61591;DHT22;71994;52.410;-1.966;2023-10-31T13:02:17;19.00;59.00
61591;DHT22;71994;52.410;-1.966;2023-10-31T13:05:27;19.00;59.10
61591;DHT22;71994;52.410;-1.966;2023-10-31T13:08:34;18.90;59.20
61591;DHT22;71994;52.410;-1.966;2023-10-31T13:11:41;18.90;59.40
61591;DHT22;71994;52.410;-1.966;2023-10-31T13:15:04;18.80;59.50
61591;DHT22;71994;52.410;-1.966;2023-10-31T13:18:27;18.80;59.70
61591;DHT22;71994;52.410;-1.966;2023-10-31T13:21:36;18.70;59.90
61591;DHT22;71994;52.410;-1.966;2023-10-31T13:24:59;18.60;60.10
61591;DHT22;71994;52.410;-1.966;2023-10-31T13:28:27;18.60;60.30
61591;DHT22;71994;52.410;-1.966;2023-10-31T13:31:35;18.50;60.50
61591;DHT22;71994;52.410;-1.966;2023-10-31T13:34:45;18.50;60.70
61591;DHT22;71994;52.410;-1.966;2023-10-31T13:37:54;18.40;60.80
61591;DHT22;71994;52.410;-1.966;2023-10-31T13:41:00;18.40;60.90
61591;DHT22;71994;52.410;-1.966;2023-10-31T13:44:07;18.30;61.00
61591;DHT22;71994;52.410;-1.966;2023-10-31T13:47:13;18.30;61.00
61591;DHT22;71994;52.410;-1.966;2023-10-31T13:50:20;18.30;61.10
61591;DHT22;71994;52.410;-1.966;2023-10-31T13:53:29;18.20;61.20
61591;DHT22;71994;52.410;-1.966;2023-10-31T13:56:35;18.20;61.40
61591;DHT22;71994;52.410;-1.966;2023-10-31T13:59:41;18.10;61.50
61591;DHT22;71994;52.410;-1.966;2023-10-31T14:02:48;18.10;61.50
61591;DHT22;71994;52.410;-1.966;2023-10-31T14:05:54;18.10;61.50
61591;DHT22;71994;52.410;-1.966;2023-10-31T14:09:03;18.10;61.60
61591;DHT22;71994;52.410;-1.966;2023-10-31T14:12:10;18.10;61.70
61591;DHT22;71994;52.410;-1.966;2023-10-31T14:15:16;18.00;61.70
61591;DHT22;71994;52.410;-1.966;2023-10-31T14:18:25;18.00;61.80
61591;DHT22;71994;52.410;-1.966;2023-10-31T14:21:31;18.00;61.90
61591;DHT22;71994;52.410;-1.966;2023-10-31T14:24:40;17.90;61.90
61591;DHT22;71994;52.410;-1.966;2023-10-31T14:27:46;17.90;62.00
61591;DHT22;71994;52.410;-1.966;2023-10-31T14:30:53;17.90;62.00
61591;DHT22;71994;52.410;-1.966;2023-10-31T14:33:59;17.80;62.10
61591;DHT22;71994;52.410;-1.966;2023-10-31T14:37:05;17.80;62.00
61591;DHT22;71994;52.410;-1.966;2023-10-31T14:40:15;17.80;62.10
61591;DHT22;71994;52.410;-1.966;2023-10-31T14:43:21;17.80;62.20
61591;DHT22;71994;52.410;-1.966;2023-10-31T14:46:27;17.80;62.20
61591;DHT22;71994;52.410;-1.966;2023-10-31T14:49:35;17.80;62.30
61591;DHT22;71994;52.410;-1.966;2023-10-31T14:52:41;17.70;62.40
61591;DHT22;71994;52.410;-1.966;2023-10-31T14:55:50;17.70;62.40
61591;DHT22;71994;52.410;-1.966;2023-10-31T14:58:57;17.70;62.50
61591;DHT22;71994;52.410;-1.966;2023-10-31T15:02:05;17.70;62.60
61591;DHT22;71994;52.410;-1.966;2023-10-31T15:05:11;17.70;62.60
61591;DHT22;71994;52.410;-1.966;2023-10-31T15:08:18;17.70;62.70
61591;DHT22;71994;52.410;-1.966;2023-10-31T15:11:27;17.60;62.70
61591;DHT22;71994;52.410;-1.966;2023-10-31T15:14:33;17.60;62.80
61591;DHT22;71994;52.410;-1.966;2023-10-31T15:17:39;17.60;62.80
61591;DHT22;71994;52.410;-1.966;2023-10-31T15:20:46;17.60;62.80
61591;DHT22;71994;52.410;-1.966;2023-10-31T15:23:54;17.60;62.80
61591;DHT22;71994;52.410;-1.966;2023-10-31T15:27:04;17.60;62.90
61591;DHT22;71994;52.410;-1.966;2023-10-31T15:30:11;17.60;62.80
61591;DHT22;71994;52.410;-1.966;2023-10-31T15:33:17;17.60;62.80
61591;DHT22;71994;52.410;-1.966;2023-10-31T15:36:23;17.60;62.90
61591;DHT22;71994;52.410;-1.966;2023-10-31T15:39:30;17.60;62.90
61591;DHT22;71994;52.410;-1.966;2023-10-31T15:42:39;17.50;62.90
61591;DHT22;71994;52.410;-1.966;2023-10-31T15:45:46;17.60;62.90
61591;DHT22;71994;52.410;-1.966;2023-10-31T15:48:52;17.60;62.90
61591;DHT22;71994;52.410;-1.966;2023-10-31T15:51:58;17.50;63.00
61591;DHT22;71994;52.410;-1.966;2023-10-31T15:55:05;17.50;62.90
61591;DHT22;71994;52.410;-1.966;2023-10-31T15:58:15;17.50;62.90
61591;DHT22;71994;52.410;-1.966;2023-10-31T16:01:21;17.50;63.10
61591;DHT22;71994;52.410;-1.966;2023-10-31T16:04:27;17.40;63.00
61591;DHT22;71994;52.410;-1.966;2023-10-31T16:07:34;17.40;63.10
61591;DHT22;71994;52.410;-1.966;2023-10-31T16:10:41;17.40;63.10
61591;DHT22;71994;52.410;-1.966;2023-10-31T16:13:50;17.40;63.10
61591;DHT22;71994;52.410;-1.966;2023-10-31T16:16:56;17.30;63.10
61591;DHT22;71994;52.410;-1.966;2023-10-31T16:20:03;17.40;63.00
61591;DHT22;71994;52.410;-1.966;2023-10-31T16:23:09;17.30;63.10
61591;DHT22;71994;52.410;-1.966;2023-10-31T16:26:15;17.30;63.10
61591;DHT22;71994;52.410;-1.966;2023-10-31T16:29:25;17.30;63.10
61591;DHT22;71994;52.410;-1.966;2023-10-31T16:32:31;17.30;63.00
61591;DHT22;71994;52.410;-1.966;2023-10-31T16:35:37;17.30;63.10
61591;DHT22;71994;52.410;-1.966;2023-10-31T16:38:43;17.20;63.10
61591;DHT22;71994;52.410;-1.966;2023-10-31T16:41:50;17.20;63.10
61591;DHT22;71994;52.410;-1.966;2023-10-31T16:44:59;17.20;63.10
61591;DHT22;71994;52.410;-1.966;2023-10-31T16:48:08;17.10;63.10
61591;DHT22;71994;52.410;-1.966;2023-10-31T16:51:15;17.10;63.10
61591;DHT22;71994;52.410;-1.966;2023-10-31T16:54:22;17.10;63.10
61591;DHT22;71994;52.410;-1.966;2023-10-31T16:57:28;17.10;63.10
61591;DHT22;71994;52.410;-1.966;2023-10-31T17:00:39;17.10;63.30
61591;DHT22;71994;52.410;-1.966;2023-10-31T17:03:45;17.10;63.20
61591;DHT22;71994;52.410;-1.966;2023-10-31T17:06:51;17.10;63.20
61591;DHT22;71994;52.410;-1.966;2023-10-31T17:09:58;17.10;63.50
61591;DHT22;71994;52.410;-1.966;2023-10-31T17:13:06;17.10;63.30
61591;DHT22;71994;52.410;-1.966;2023-10-31T17:16:15;17.20;63.30
61591;DHT22;71994;52.410;-1.966;2023-10-31T17:19:21;17.40;63.20
61591;DHT22;71994;52.410;-1.966;2023-10-31T17:22:27;17.60;62.80
61591;DHT22;71994;52.410;-1.966;2023-10-31T17:25:35;17.80;62.40
61591;DHT22;71994;52.410;-1.966;2023-10-31T17:28:50;18.00;61.90
61591;DHT22;71994;52.410;-1.966;2023-10-31T17:32:01;18.20;61.60
61591;DHT22;71994;52.410;-1.966;2023-10-31T17:35:08;18.40;61.30
61591;DHT22;71994;52.410;-1.966;2023-10-31T17:38:15;18.70;60.70
61591;DHT22;71994;52.410;-1.966;2023-10-31T17:41:25;18.80;60.30
61591;DHT22;71994;52.410;-1.966;2023-10-31T17:44:31;19.00;60.00
61591;DHT22;71994;52.410;-1.966;2023-10-31T17:47:41;19.10;59.60
61591;DHT22;71994;52.410;-1.966;2023-10-31T17:50:47;19.30;59.20
61591;DHT22;71994;52.410;-1.966;2023-10-31T17:53:53;19.50;58.90
61591;DHT22;71994;52.410;-1.966;2023-10-31T17:56:59;19.60;58.60
61591;DHT22;71994;52.410;-1.966;2023-10-31T18:00:07;19.70;58.20
61591;DHT22;71994;52.410;-1.966;2023-10-31T18:03:16;19.80;58.00
61591;DHT22;71994;52.410;-1.966;2023-10-31T18:06:22;20.00;57.60
61591;DHT22;71994;52.410;-1.966;2023-10-31T18:09:29;20.00;57.60
61591;DHT22;71994;52.410;-1.966;2023-10-31T18:12:35;20.10;57.50
61591;DHT22;71994;52.410;-1.966;2023-10-31T18:15:41;20.00;57.50
61591;DHT22;71994;52.410;-1.966;2023-10-31T18:18:50;19.90;57.40
61591;DHT22;71994;52.410;-1.966;2023-10-31T18:21:57;19.80;57.50
61591;DHT22;71994;52.410;-1.966;2023-10-31T18:25:04;19.70;57.60
61591;DHT22;71994;52.410;-1.966;2023-10-31T18:28:10;19.70;57.80
61591;DHT22;71994;52.410;-1.966;2023-10-31T18:31:16;19.70;58.40
61591;DHT22;71994;52.410;-1.966;2023-10-31T18:34:26;19.70;58.50
61591;DHT22;71994;52.410;-1.966;2023-10-31T18:37:33;19.70;58.70
61591;DHT22;71994;52.410;-1.966;2023-10-31T18:40:41;19.70;59.20
61591;DHT22;71994;52.410;-1.966;2023-10-31T18:43:49;19.70;59.50
61591;DHT22;71994;52.410;-1.966;2023-10-31T18:46:55;19.70;59.80
61591;DHT22;71994;52.410;-1.966;2023-10-31T18:50:05;19.70;59.90
61591;DHT22;71994;52.410;-1.966;2023-10-31T18:53:12;19.70;60.10
61591;DHT22;71994;52.410;-1.966;2023-10-31T18:56:21;19.60;60.40
61591;DHT22;71994;52.410;-1.966;2023-10-31T18:59:28;19.60;60.70
61591;DHT22;71994;52.410;-1.966;2023-10-31T19:02:35;19.50;60.80
61591;DHT22;71994;52.410;-1.966;2023-10-31T19:05:44;19.60;60.90
61591;DHT22;71994;52.410;-1.966;2023-10-31T19:08:50;19.60;60.90
61591;DHT22;71994;52.410;-1.966;2023-10-31T19:11:56;19.60;61.00
61591;DHT22;71994;52.410;-1.966;2023-10-31T19:15:03;19.60;61.10
61591;DHT22;71994;52.410;-1.966;2023-10-31T19:18:09;19.60;61.00
61591;DHT22;71994;52.410;-1.966;2023-10-31T19:21:19;19.50;61.00
61591;DHT22;71994;52.410;-1.966;2023-10-31T19:24:25;19.50;61.10
61591;DHT22;71994;52.410;-1.966;2023-10-31T19:27:31;19.50;61.20